Time;durP1;ratioP1;P1;durP2;ratioP2;P2;SDS_P1;SDS_P2;PMS_P1;PMS_P2;Temp;Humidity;BMP_temperature;BMP_pressure;BME280_temperature;BME280_humidity;BME280_pressure;Samples;Min_cycle;Max_cycle;Signal;HPM_P1;HPM_P2
2022/07/19 00:01:41;;;;;;;5.43;1.70;;;17.50;85.90;;;;;;5078686;28;20471;-78
2022/07/19 00:04:07;;;;;;;2.17;1.20;;;17.50;85.50;;;;;;5080606;28;20208;-78
2022/07/19 00:06:33;;;;;;;2.73;1.40;;;17.40;85.80;;;;;;5081861;28;20631;-77
2022/07/19 00:08:58;;;;;;;2.60;0.93;;;17.40;85.90;;;;;;5075233;28;20257;-78
2022/07/19 00:11:24;;;;;;;4.53;1.53;;;17.30;85.90;;;;;;5072012;28;20276;-78
2022/07/19 00:13:50;;;;;;;4.77;2.00;;;17.20;86.30;;;;;;5066031;28;20212;-78
2022/07/19 00:16:15;;;;;;;4.57;2.17;;;17.20;86.40;;;;;;5074264;28;20662;-78
2022/07/19 00:18:42;;;;;;;2.93;1.30;;;17.10;86.70;;;;;;5069383;28;20220;-78
2022/07/19 00:21:07;;;;;;;5.27;1.67;;;17.10;86.80;;;;;;5085131;28;20261;-78
2022/07/19 00:23:33;;;;;;;2.73;1.33;;;17.10;86.90;;;;;;5067282;28;20500;-77
2022/07/19 00:26:00;;;;;;;5.70;1.30;;;17.00;87.00;;;;;;5071835;28;20193;-78
2022/07/19 00:28:26;;;;;;;2.40;1.27;;;17.00;87.50;;;;;;5068235;28;20185;-78
2022/07/19 00:30:51;;;;;;;4.50;1.57;;;17.00;87.90;;;;;;5062704;28;20805;-78
2022/07/19 00:33:17;;;;;;;3.77;1.80;;;17.00;87.40;;;;;;5058224;28;20588;-76
2022/07/19 00:35:43;;;;;;;2.67;1.30;;;16.90;88.30;;;;;;5073564;28;20184;-78
2022/07/19 00:38:11;;;;;;;7.27;1.40;;;16.90;88.70;;;;;;5072062;28;20185;-78
2022/07/19 00:40:38;;;;;;;2.00;0.97;;;16.90;89.30;;;;;;5073014;28;20204;-78
2022/07/19 00:43:04;;;;;;;3.37;1.60;;;16.80;89.30;;;;;;5072382;28;20425;-78
2022/07/19 00:45:30;;;;;;;4.17;1.70;;;16.80;89.50;;;;;;5074517;28;21156;-78
2022/07/19 00:47:55;;;;;;;7.93;1.87;;;16.80;89.80;;;;;;5067992;28;20177;-78
2022/07/19 00:50:22;;;;;;;4.70;1.40;;;16.80;89.70;;;;;;5070298;28;20184;-77
2022/07/19 00:52:51;;;;;;;3.60;1.67;;;16.70;89.30;;;;;;5069628;28;20231;-78
2022/07/19 00:55:21;;;;;;;2.63;1.50;;;16.70;89.60;;;;;;5070057;28;20537;-78
2022/07/19 00:57:48;;;;;;;3.80;2.00;;;16.60;89.70;;;;;;5060538;28;20439;-77
2022/07/19 01:00:15;;;;;;;2.63;1.17;;;16.70;89.50;;;;;;5075542;28;20975;-77
2022/07/19 01:02:41;;;;;;;4.53;1.80;;;16.60;89.60;;;;;;5060559;28;20438;-75
2022/07/19 01:05:08;;;;;;;3.70;1.37;;;16.60;89.80;;;;;;5062296;28;20444;-75
2022/07/19 01:07:37;;;;;;;3.70;1.73;;;16.50;89.70;;;;;;5074131;28;20424;-75
2022/07/19 01:10:07;;;;;;;5.40;2.20;;;16.50;90.10;;;;;;5069482;28;20931;-75
2022/07/19 01:12:34;;;;;;;4.53;1.93;;;16.50;90.20;;;;;;5075808;28;20939;-75
2022/07/19 01:15:00;;;;;;;5.70;1.80;;;16.40;90.20;;;;;;5060465;28;20454;-76
2022/07/19 01:17:26;;;;;;;15.40;1.73;;;16.40;90.60;;;;;;5075551;28;20477;-75
2022/07/19 01:19:52;;;;;;;2.43;1.27;;;16.20;90.30;;;;;;5058444;28;20467;-75
2022/07/19 01:22:18;;;;;;;2.37;1.40;;;16.20;90.80;;;;;;5079958;28;20219;-76
2022/07/19 01:24:43;;;;;;;3.37;1.53;;;16.20;90.70;;;;;;5064304;28;20499;-75
2022/07/19 01:27:09;;;;;;;5.50;1.60;;;16.20;91.00;;;;;;5067538;28;20642;-76
2022/07/19 01:29:36;;;;;;;4.97;1.60;;;16.10;91.00;;;;;;5061939;28;20203;-76
2022/07/19 01:32:03;;;;;;;5.30;2.27;;;16.10;91.00;;;;;;5062097;28;20190;-76
2022/07/19 01:34:29;;;;;;;3.10;1.60;;;16.10;91.50;;;;;;5060501;28;20452;-76
2022/07/19 01:36:54;;;;;;;6.53;1.87;;;16.10;91.30;;;;;;5064244;28;20438;-77
2022/07/19 01:39:20;;;;;;;5.83;1.67;;;16.00;91.40;;;;;;5064133;28;20192;-77
2022/07/19 01:41:46;;;;;;;9.03;1.67;;;16.10;91.30;;;;;;5066626;28;20288;-75
2022/07/19 01:44:11;;;;;;;3.53;1.63;;;16.00;91.10;;;;;;5065298;28;20237;-76
2022/07/19 01:46:37;;;;;;;3.70;1.63;;;16.00;90.90;;;;;;5067474;28;20274;-77
2022/07/19 01:49:03;;;;;;;8.13;2.00;;;16.00;91.00;;;;;;5065316;28;20193;-75
2022/07/19 01:51:28;;;;;;;3.80;1.60;;;16.00;91.00;;;;;;5066722;28;20208;-75
2022/07/19 01:53:54;;;;;;;5.63;2.20;;;16.00;91.00;;;;;;5072059;28;20220;-77
2022/07/19 01:56:20;;;;;;;4.93;1.60;;;16.00;91.50;;;;;;5058195;28;20182;-73
2022/07/19 01:58:46;;;;;;;3.10;1.73;;;16.00;91.50;;;;;;5071447;28;20284;-76
2022/07/19 02:01:11;;;;;;;4.03;1.83;;;16.00;91.50;;;;;;5064688;28;20696;-77
2022/07/19 02:03:37;;;;;;;3.00;1.57;;;15.90;91.80;;;;;;5069020;28;20704;-73
2022/07/19 02:06:03;;;;;;;3.60;1.70;;;15.90;91.90;;;;;;5063064;28;20185;-76
2022/07/19 02:08:29;;;;;;;4.07;1.47;;;15.90;91.80;;;;;;5067459;28;20251;-76
2022/07/19 02:10:54;;;;;;;2.30;1.47;;;15.80;91.60;;;;;;5060698;28;20200;-74
2022/07/19 02:13:20;;;;;;;4.90;1.77;;;15.80;91.70;;;;;;5071953;28;20185;-77
2022/07/19 02:15:46;;;;;;;4.10;1.70;;;15.70;91.40;;;;;;5070072;28;20284;-75
2022/07/19 02:18:12;;;;;;;5.87;1.70;;;15.70;91.50;;;;;;5072965;28;20259;-76
2022/07/19 02:20:37;;;;;;;3.03;1.70;;;15.80;91.40;;;;;;5071455;28;20217;-76
2022/07/19 02:23:03;;;;;;;2.37;1.37;;;15.80;91.20;;;;;;5070510;28;20480;-76
2022/07/19 02:25:29;;;;;;;2.57;1.30;;;15.70;91.50;;;;;;5069707;28;20305;-75
2022/07/19 02:27:54;;;;;;;3.10;1.67;;;15.70;91.60;;;;;;5072597;28;20647;-76
2022/07/19 02:30:20;;;;;;;2.50;1.23;;;15.60;91.60;;;;;;5073884;28;20208;-71
2022/07/19 02:32:46;;;;;;;3.60;2.10;;;15.60;91.70;;;;;;5068287;28;20285;-75
2022/07/19 02:35:12;;;;;;;2.53;1.20;;;15.60;91.70;;;;;;5070442;28;20221;-76
2022/07/19 02:37:40;;;;;;;3.00;1.57;;;15.50;91.60;;;;;;5064475;28;20436;-76
2022/07/19 02:40:06;;;;;;;3.40;2.20;;;15.50;91.60;;;;;;5065685;28;20558;-76
2022/07/19 02:42:32;;;;;;;6.17;1.53;;;15.50;91.70;;;;;;5068676;28;20432;-75
2022/07/19 02:44:58;;;;;;;2.33;1.10;;;15.50;91.80;;;;;;5066249;28;20520;-75
2022/07/19 02:47:23;;;;;;;7.60;1.77;;;15.50;91.70;;;;;;5069797;28;20189;-76
2022/07/19 02:49:49;;;;;;;3.10;1.83;;;15.60;92.00;;;;;;5071019;28;20192;-76
2022/07/19 02:52:15;;;;;;;3.17;1.70;;;15.50;92.10;;;;;;5072530;28;20595;-76
2022/07/19 02:54:41;;;;;;;2.40;1.43;;;15.50;92.10;;;;;;5069623;28;20205;-75
2022/07/19 02:57:06;;;;;;;3.10;1.73;;;15.50;92.20;;;;;;5079606;28;20796;-76
2022/07/19 02:59:32;;;;;;;3.70;2.00;;;15.50;92.50;;;;;;5057728;28;20692;-77
2022/07/19 03:01:58;;;;;;;2.10;1.20;;;15.40;92.40;;;;;;5072941;28;20212;-74
2022/07/19 03:04:23;;;;;;;5.40;2.13;;;15.40;92.60;;;;;;5067289;28;20208;-75
2022/07/19 03:06:49;;;;;;;2.10;1.23;;;15.30;92.60;;;;;;5065090;28;20193;-75
2022/07/19 03:09:14;;;;;;;2.20;1.40;;;15.30;92.70;;;;;;5064296;28;20775;-75
2022/07/19 03:11:40;;;;;;;6.83;1.97;;;15.30;92.80;;;;;;5066204;28;20275;-76
2022/07/19 03:14:06;;;;;;;2.70;1.57;;;15.20;92.90;;;;;;5077221;28;20213;-75
2022/07/19 03:16:32;;;;;;;2.80;1.53;;;15.20;92.80;;;;;;5066705;28;20209;-75
2022/07/19 03:18:57;;;;;;;6.50;1.40;;;15.20;92.90;;;;;;5074514;28;20188;-75
2022/07/19 03:21:23;;;;;;;5.20;1.63;;;15.20;93.00;;;;;;5072552;28;20225;-76
2022/07/19 03:23:49;;;;;;;3.83;1.97;;;15.10;93.10;;;;;;5070975;28;20461;-75
2022/07/19 03:26:15;;;;;;;3.20;1.47;;;15.10;93.10;;;;;;5069587;28;20295;-76
2022/07/19 03:28:41;;;;;;;2.93;1.80;;;15.10;93.40;;;;;;5071663;28;20188;-75
2022/07/19 03:31:06;;;;;;;3.10;1.67;;;15.10;93.50;;;;;;5074176;28;20497;-75
2022/07/19 03:33:32;;;;;;;2.90;1.40;;;15.00;93.60;;;;;;5071917;28;20284;-75
2022/07/19 03:35:58;;;;;;;1.80;0.90;;;15.10;93.80;;;;;;5078713;28;20237;-76
2022/07/19 03:38:24;;;;;;;7.33;2.10;;;15.00;93.60;;;;;;5068076;28;20280;-76
2022/07/19 03:40:50;;;;;;;3.73;1.70;;;15.00;93.70;;;;;;5062537;28;20562;-76
2022/07/19 03:43:16;;;;;;;2.30;1.40;;;14.90;93.80;;;;;;5058918;28;20192;-76
2022/07/19 03:45:43;;;;;;;6.80;1.90;;;14.90;93.80;;;;;;5070309;28;20484;-76
2022/07/19 03:48:09;;;;;;;2.97;1.20;;;15.00;93.90;;;;;;5072428;28;20425;-72
2022/07/19 03:50:34;;;;;;;3.67;1.63;;;15.00;93.70;;;;;;5066934;28;20530;-75
2022/07/19 03:53:00;;;;;;;3.50;1.90;;;15.00;93.80;;;;;;5074168;28;20184;-75
2022/07/19 03:55:26;;;;;;;6.73;2.17;;;15.00;93.70;;;;;;5075371;28;20212;-76
2022/07/19 03:57:51;;;;;;;2.63;1.43;;;15.00;93.90;;;;;;5079276;28;20207;-75
2022/07/19 04:00:17;;;;;;;2.10;1.37;;;14.90;93.90;;;;;;5065677;28;20239;-76
2022/07/19 04:02:43;;;;;;;4.90;1.73;;;14.80;94.00;;;;;;5073934;28;20568;-77
2022/07/19 04:05:09;;;;;;;6.77;1.73;;;14.80;94.20;;;;;;5072750;28;20212;-75
2022/07/19 04:07:35;;;;;;;3.70;1.53;;;14.80;94.20;;;;;;5068004;28;20811;-75
2022/07/19 04:10:01;;;;;;;4.57;1.53;;;14.90;94.20;;;;;;5067043;28;20217;-75
2022/07/19 04:12:27;;;;;;;3.83;1.67;;;14.90;94.30;;;;;;5073176;28;21026;-75
2022/07/19 04:14:52;;;;;;;4.60;1.60;;;15.00;94.20;;;;;;5064475;28;20283;-76
2022/07/19 04:17:20;;;;;;;15.13;2.27;;;15.00;94.30;;;;;;5068208;28;20439;-76
2022/07/19 04:19:45;;;;;;;4.40;1.60;;;14.90;94.40;;;;;;5069670;28;20304;-77
2022/07/19 04:22:11;;;;;;;3.33;2.17;;;15.00;94.30;;;;;;5071714;28;21223;-71
2022/07/19 04:24:36;;;;;;;3.97;1.90;;;15.00;94.60;;;;;;5067134;28;20201;-76
2022/07/19 04:27:02;;;;;;;2.97;1.73;;;15.00;94.30;;;;;;5065979;28;20234;-76
2022/07/19 04:29:28;;;;;;;5.30;1.40;;;15.00;94.80;;;;;;5061970;28;20177;-77
2022/07/19 04:31:53;;;;;;;3.00;1.90;;;15.00;94.70;;;;;;5072116;28;20281;-76
2022/07/19 04:34:19;;;;;;;4.33;1.27;;;15.10;94.60;;;;;;5072380;28;20768;-77
2022/07/19 04:36:45;;;;;;;2.37;1.47;;;15.10;95.00;;;;;;5074836;28;20181;-76
2022/07/19 04:39:10;;;;;;;3.80;1.23;;;15.10;95.10;;;;;;5069922;28;20264;-73
2022/07/19 04:41:36;;;;;;;4.47;1.93;;;15.20;95.00;;;;;;5067678;28;20343;-76
2022/07/19 04:44:01;;;;;;;3.43;1.87;;;15.20;95.20;;;;;;5069734;28;20240;-75
2022/07/19 04:46:27;;;;;;;4.40;2.03;;;15.30;95.20;;;;;;5067310;28;20173;-76
2022/07/19 04:48:53;;;;;;;4.00;1.97;;;15.30;95.00;;;;;;5065929;28;20181;-76
2022/07/19 04:51:18;;;;;;;2.30;1.20;;;15.40;94.90;;;;;;5072810;28;20184;-76
2022/07/19 04:53:44;;;;;;;6.10;1.67;;;15.40;94.90;;;;;;5071122;28;20213;-76
2022/07/19 04:56:09;;;;;;;4.20;2.00;;;15.50;94.60;;;;;;5074676;28;20256;-76
2022/07/19 04:58:35;;;;;;;2.97;1.60;;;15.60;94.20;;;;;;5070266;28;20197;-77
2022/07/19 05:01:01;;;;;;;4.30;1.80;;;15.60;94.30;;;;;;5067053;28;20217;-76
2022/07/19 05:03:26;;;;;;;2.37;1.40;;;15.70;94.70;;;;;;5068352;28;20189;-72
2022/07/19 05:05:52;;;;;;;4.93;2.33;;;15.70;94.00;;;;;;5072708;28;20181;-76
2022/07/19 05:08:17;;;;;;;3.73;1.60;;;15.80;93.80;;;;;;5070886;28;20173;-77
2022/07/19 05:10:43;;;;;;;3.20;1.70;;;15.90;94.20;;;;;;5068754;28;20189;-76
2022/07/19 05:13:09;;;;;;;3.17;1.80;;;16.00;94.50;;;;;;5069702;28;20238;-74
2022/07/19 05:15:35;;;;;;;2.97;1.90;;;16.00;95.00;;;;;;5068886;28;20208;-76
2022/07/19 05:18:00;;;;;;;2.80;1.37;;;16.00;95.00;;;;;;5078944;28;20193;-77
2022/07/19 05:20:26;;;;;;;3.00;1.57;;;16.10;95.00;;;;;;5067948;28;20229;-77
2022/07/19 05:22:52;;;;;;;3.20;1.70;;;16.20;94.90;;;;;;5066480;28;20185;-76
2022/07/19 05:25:17;;;;;;;4.23;1.70;;;16.20;95.00;;;;;;5070440;28;20195;-77
2022/07/19 05:27:43;;;;;;;4.70;2.20;;;16.30;95.20;;;;;;5068776;28;20234;-75
2022/07/19 05:30:10;;;;;;;7.43;1.80;;;16.30;95.20;;;;;;5064418;28;20260;-77
2022/07/19 05:32:36;;;;;;;2.70;1.60;;;16.40;95.20;;;;;;5070567;28;20196;-76
2022/07/19 05:35:02;;;;;;;4.00;1.77;;;16.50;95.10;;;;;;5068062;28;20454;-75
2022/07/19 05:37:27;;;;;;;2.67;1.63;;;16.50;94.40;;;;;;5066223;28;20294;-76
2022/07/19 05:39:53;;;;;;;3.20;1.43;;;16.70;94.40;;;;;;5065056;28;20567;-76
2022/07/19 05:42:18;;;;;;;3.53;1.53;;;16.80;93.60;;;;;;5077847;28;20195;-76
2022/07/19 05:44:44;;;;;;;4.93;1.77;;;16.90;93.60;;;;;;5073522;28;20585;-76
2022/07/19 05:47:10;;;;;;;10.00;1.90;;;17.00;93.40;;;;;;5077123;28;20173;-77
2022/07/19 05:49:35;;;;;;;2.33;1.37;;;17.20;93.80;;;;;;5083767;28;20180;-77
2022/07/19 05:52:01;;;;;;;3.30;1.50;;;17.30;94.00;;;;;;5070258;28;20203;-77
2022/07/19 05:54:27;;;;;;;6.97;1.93;;;17.40;93.90;;;;;;5073607;28;20443;-76
2022/07/19 05:56:52;;;;;;;3.67;1.30;;;17.50;93.80;;;;;;5076230;28;20687;-75
2022/07/19 05:59:20;;;;;;;2.60;1.47;;;17.60;93.00;;;;;;5070213;28;20233;-76
2022/07/19 06:01:47;;;;;;;5.73;1.70;;;17.70;93.40;;;;;;5064999;28;20724;-78
2022/07/19 06:04:13;;;;;;;2.83;1.37;;;17.80;93.40;;;;;;5071199;28;20451;-77
2022/07/19 06:06:38;;;;;;;5.30;1.70;;;17.90;93.00;;;;;;5072677;28;20920;-78
2022/07/19 06:09:05;;;;;;;3.70;1.30;;;18.00;92.80;;;;;;5067067;28;20208;-77
2022/07/19 06:11:31;;;;;;;3.83;1.30;;;18.10;92.30;;;;;;5074267;28;20181;-77
2022/07/19 06:13:56;;;;;;;2.27;1.30;;;18.20;92.30;;;;;;5072567;28;20439;-78
2022/07/19 06:16:25;;;;;;;3.50;2.20;;;18.40;92.00;;;;;;5075673;28;20885;-76
2022/07/19 06:18:51;;;;;;;3.93;1.20;;;18.50;92.10;;;;;;5075007;28;20959;-77
2022/07/19 06:21:19;;;;;;;3.40;1.90;;;18.60;92.40;;;;;;5075176;28;20479;-78
2022/07/19 06:23:45;;;;;;;4.17;2.07;;;18.70;92.00;;;;;;5071511;28;20447;-77
2022/07/19 06:26:12;;;;;;;10.90;2.00;;;18.90;91.60;;;;;;5071705;28;20802;-76
2022/07/19 06:28:39;;;;;;;5.10;1.83;;;19.00;92.00;;;;;;5069214;28;20481;-77
2022/07/19 06:31:10;;;;;;;2.80;1.27;;;19.20;91.10;;;;;;5069771;28;20801;-73
2022/07/19 06:33:39;;;;;;;2.60;1.30;;;19.50;91.00;;;;;;5069092;28;20451;-78
2022/07/19 06:36:05;;;;;;;3.23;1.37;;;19.70;91.50;;;;;;5070356;28;20943;-77
2022/07/19 06:38:30;;;;;;;3.03;1.60;;;19.90;90.80;;;;;;5077325;28;20438;-74
2022/07/19 06:40:56;;;;;;;2.57;1.37;;;20.30;82.50;;;;;;5083885;28;20204;-77
2022/07/19 06:43:21;;;;;;;2.10;1.00;;;20.60;81.50;;;;;;5082036;28;20195;-77
2022/07/19 06:45:47;;;;;;;2.90;1.50;;;20.90;79.10;;;;;;5076147;28;20207;-77
2022/07/19 06:48:13;;;;;;;5.07;1.33;;;21.10;78.90;;;;;;5074196;28;20730;-77
2022/07/19 06:50:38;;;;;;;3.30;1.50;;;21.30;79.00;;;;;;5075479;28;20607;-77
2022/07/19 06:53:04;;;;;;;2.60;1.27;;;21.60;77.30;;;;;;5076411;28;20195;-76
2022/07/19 06:55:29;;;;;;;2.50;1.30;;;21.70;76.60;;;;;;5072507;28;20230;-77
2022/07/19 06:57:55;;;;;;;5.20;1.00;;;22.00;75.70;;;;;;5072710;28;20776;-77
2022/07/19 07:00:21;;;;;;;3.10;1.50;;;22.30;73.80;;;;;;5075155;28;20200;-77
2022/07/19 07:02:46;;;;;;;8.70;1.63;;;22.60;72.10;;;;;;5080458;28;20684;-78
2022/07/19 07:05:12;;;;;;;12.80;2.00;;;22.90;70.40;;;;;;5076368;28;20212;-73
2022/07/19 07:07:39;;;;;;;5.83;1.80;;;23.30;69.30;;;;;;5080388;28;20187;-77
2022/07/19 07:10:07;;;;;;;4.20;1.40;;;23.50;68.20;;;;;;5075772;28;20192;-78
2022/07/19 07:12:34;;;;;;;2.90;1.60;;;23.60;67.60;;;;;;5076700;28;20430;-78
2022/07/19 07:14:59;;;;;;;2.73;1.27;;;23.90;65.50;;;;;;5077771;28;20443;-78
2022/07/19 07:17:25;;;;;;;2.50;1.17;;;24.20;63.50;;;;;;5072404;28;20451;-79
2022/07/19 07:19:51;;;;;;;2.43;1.33;;;24.60;62.10;;;;;;5073366;28;20210;-77
2022/07/19 07:22:16;;;;;;;2.80;1.23;;;24.70;62.10;;;;;;5071253;28;20248;-77
2022/07/19 07:24:42;;;;;;;15.47;2.27;;;24.90;63.30;;;;;;5071041;28;20287;-78
2022/07/19 07:27:08;;;;;;;2.70;1.60;;;25.20;65.50;;;;;;5081022;28;20192;-78
2022/07/19 07:29:34;;;;;;;3.23;1.43;;;25.60;64.90;;;;;;5064382;28;20220;-78
2022/07/19 07:31:59;;;;;;;4.33;2.30;;;26.00;63.70;;;;;;5078175;28;20189;-77
2022/07/19 07:34:25;;;;;;;2.53;1.33;;;26.50;61.60;;;;;;5075767;28;20291;-78
2022/07/19 07:36:51;;;;;;;7.60;1.43;;;26.80;61.50;;;;;;5071518;28;20188;-75
2022/07/19 07:39:16;;;;;;;2.87;1.60;;;27.20;59.00;;;;;;5068791;28;20210;-75
2022/07/19 07:41:42;;;;;;;3.10;1.40;;;27.60;58.00;;;;;;5071370;28;20212;-78
2022/07/19 07:44:08;;;;;;;3.50;1.73;;;28.40;55.10;;;;;;5067958;28;20199;-78
2022/07/19 07:46:34;;;;;;;2.63;1.48;;;29.20;54.10;;;;;;5076329;28;20180;-78
2022/07/19 07:49:00;;;;;;;3.47;1.48;;;30.60;52.10;;;;;;5059577;28;21488;-79
2022/07/19 07:51:25;;;;;;;4.72;1.45;;;31.40;50.70;;;;;;5075935;28;20271;-79
2022/07/19 07:53:51;;;;;;;2.92;1.23;;;32.30;49.20;;;;;;5074688;28;20212;-79
2022/07/19 07:56:17;;;;;;;3.38;1.17;;;33.20;47.10;;;;;;5074879;28;20188;-80
2022/07/19 07:58:43;;;;;;;10.60;1.58;;;34.00;47.70;;;;;;5081445;28;20191;-79
2022/07/19 08:01:08;;;;;;;8.25;1.38;;;33.50;45.40;;;;;;5071257;28;20291;-79
2022/07/19 08:03:34;;;;;;;4.30;1.58;;;34.30;44.60;;;;;;5074414;28;20707;-79
2022/07/19 08:06:00;;;;;;;3.33;1.35;;;34.10;43.50;;;;;;5077420;28;20177;-79
2022/07/19 08:08:29;;;;;;;3.33;1.75;;;34.30;43.10;;;;;;5082197;28;20233;-79
2022/07/19 08:10:55;;;;;;;8.90;1.83;;;34.50;42.60;;;;;;5078505;28;20176;-80
2022/07/19 08:13:22;;;;;;;3.50;1.40;;;34.60;43.00;;;;;;5076820;28;20184;-77
2022/07/19 08:15:48;;;;;;;2.22;1.27;;;34.80;42.80;;;;;;5072187;28;20325;-79
2022/07/19 08:18:14;;;;;;;8.00;1.45;;;34.20;42.70;;;;;;5079490;28;20636;-79
2022/07/19 08:20:39;;;;;;;2.50;1.45;;;34.60;42.20;;;;;;5078773;28;20193;-79
2022/07/19 08:23:05;;;;;;;3.30;1.83;;;34.30;42.60;;;;;;5073977;28;20180;-80
2022/07/19 08:25:32;;;;;;;2.47;1.33;;;34.80;40.60;;;;;;5072391;28;20945;-79
2022/07/19 08:27:58;;;;;;;2.40;1.10;;;34.90;41.60;;;;;;5072548;28;20210;-79
2022/07/19 08:30:24;;;;;;;3.40;1.80;;;34.50;41.10;;;;;;5073154;28;20181;-76
2022/07/19 08:32:49;;;;;;;3.33;1.83;;;34.90;40.20;;;;;;5073750;28;20188;-79
2022/07/19 08:35:15;;;;;;;4.95;1.50;;;35.30;40.00;;;;;;5064210;28;20200;-80
2022/07/19 08:37:41;;;;;;;2.97;1.60;;;35.40;41.10;;;;;;5072432;28;20211;-80
2022/07/19 08:40:07;;;;;;;1.98;1.10;;;35.00;41.30;;;;;;5066987;28;20265;-80
2022/07/19 08:42:33;;;;;;;2.50;1.27;;;34.40;40.10;;;;;;5072878;28;20203;-79
2022/07/19 08:45:05;;;;;;;2.72;1.48;;;34.10;40.30;;;;;;5072661;28;20205;-80
2022/07/19 08:47:34;;;;;;;2.55;1.25;;;34.60;40.30;;;;;;5074458;28;20191;-79
2022/07/19 08:50:01;;;;;;;4.60;1.33;;;34.10;40.40;;;;;;5073652;28;20184;-79
2022/07/19 08:52:27;;;;;;;5.55;1.80;;;34.10;40.50;;;;;;5074184;28;20207;-77
2022/07/19 08:54:55;;;;;;;3.38;1.80;;;33.70;40.50;;;;;;5075322;28;20260;-79
2022/07/19 09:00:06;;;;;;;2.45;1.35;;;33.70;40.80;;;;;;5077350;28;20258;-79
2022/07/19 09:02:32;;;;;;;6.50;1.80;;;33.80;40.40;;;;;;5067012;28;20281;-79
2022/07/19 09:05:07;;;;;;;2.22;1.13;;;33.80;40.20;;;;;;5074821;28;20838;-79
2022/07/19 09:07:35;;;;;;;4.07;1.40;;;34.00;39.70;;;;;;5066593;28;20191;-79
2022/07/19 09:10:22;;;;;;;6.22;1.55;;;34.10;40.00;;;;;;5067069;28;20176;-79
2022/07/19 09:13:02;;;;;;;4.20;2.00;;;34.00;40.30;;;;;;5061358;28;20173;-80
2022/07/19 09:15:44;;;;;;;3.50;1.85;;;34.00;40.00;;;;;;5061986;28;20200;-79
2022/07/19 09:18:35;;;;;;;4.15;1.88;;;33.70;41.00;;;;;;5072902;28;20188;-80
2022/07/19 09:21:02;;;;;;;4.53;1.75;;;34.20;40.00;;;;;;5062463;28;20295;-77
2022/07/19 09:23:29;;;;;;;2.80;1.25;;;34.00;41.30;;;;;;5070420;28;20238;-80
2022/07/19 09:25:57;;;;;;;2.50;1.20;;;34.20;40.40;;;;;;5078290;28;20195;-78
2022/07/19 09:28:25;;;;;;;3.55;1.75;;;34.50;39.60;;;;;;5071800;28;20217;-79
2022/07/19 09:30:53;;;;;;;3.15;1.70;;;34.70;39.90;;;;;;5069394;28;20190;-80
2022/07/19 09:33:21;;;;;;;5.65;1.90;;;33.70;40.00;;;;;;5072655;28;20179;-79
2022/07/19 09:36:00;;;;;;;4.53;1.50;;;32.70;42.70;;;;;;5071972;28;20190;-79
2022/07/19 09:38:34;;;;;;;3.97;1.90;;;32.90;42.50;;;;;;5065260;28;20208;-79
2022/07/19 09:41:15;;;;;;;2.28;1.15;;;33.00;42.40;;;;;;5058597;28;20215;-76
2022/07/19 09:43:54;;;;;;;3.47;1.60;;;33.20;42.00;;;;;;5074844;28;20208;-79
2022/07/19 09:46:34;;;;;;;7.18;1.70;;;33.00;41.90;;;;;;5068043;28;20654;-78
2022/07/19 09:49:13;;;;;;;3.53;1.80;;;32.90;42.50;;;;;;5081164;28;20187;-79
2022/07/19 09:51:44;;;;;;;3.58;1.75;;;33.30;42.00;;;;;;5061513;28;20528;-78
2022/07/19 09:54:12;;;;;;;12.48;2.08;;;33.40;43.60;;;;;;5065114;28;20282;-79
2022/07/19 09:56:39;;;;;;;2.65;1.60;;;33.30;43.30;;;;;;5071500;28;20195;-79
2022/07/19 09:59:06;;;;;;;4.25;2.35;;;33.30;43.00;;;;;;5073382;28;20203;-79
2022/07/19 10:01:33;;;;;;;4.65;2.33;;;33.50;42.10;;;;;;5073747;28;20195;-79
2022/07/19 10:04:13;;;;;;;5.93;1.88;;;33.70;42.30;;;;;;5078273;28;20224;-79
2022/07/19 10:06:41;;;;;;;7.35;1.85;;;33.70;41.40;;;;;;5077413;28;20176;-79
2022/07/19 10:09:09;;;;;;;4.70;1.55;;;34.00;40.90;;;;;;5078427;28;20681;-80
2022/07/19 10:11:35;;;;;;;2.95;1.30;;;34.00;41.10;;;;;;5068995;28;20188;-79
2022/07/19 10:14:02;;;;;;;2.25;1.40;;;33.60;41.60;;;;;;5084095;28;20279;-79
2022/07/19 10:16:42;;;;;;;12.68;2.67;;;33.90;41.10;;;;;;5079447;28;20183;-79
2022/07/19 10:19:34;;;;;;;3.55;1.50;;;34.00;41.00;;;;;;5079765;28;20198;-78
2022/07/19 10:22:00;;;;;;;3.13;1.58;;;33.70;40.80;;;;;;5068069;28;20666;-78
2022/07/19 10:24:45;;;;;;;4.35;1.85;;;33.50;42.90;;;;;;5080649;28;20688;-79
2022/07/19 10:27:12;;;;;;;6.95;1.65;;;33.30;41.60;;;;;;5080285;28;20180;-78
2022/07/19 10:29:37;;;;;;;3.85;1.73;;;33.20;42.10;;;;;;5077265;28;20187;-78
2022/07/19 10:32:06;;;;;;;2.28;1.35;;;33.20;41.40;;;;;;5077988;28;20205;-78
2022/07/19 10:34:32;;;;;;;4.88;1.60;;;33.20;40.70;;;;;;5070885;28;20201;-78
2022/07/19 10:36:57;;;;;;;3.17;1.60;;;33.00;41.60;;;;;;5076683;28;20187;-79
2022/07/19 10:39:26;;;;;;;3.20;1.30;;;32.40;41.70;;;;;;5073651;28;20561;-78
2022/07/19 10:42:13;;;;;;;2.65;1.20;;;32.50;40.50;;;;;;5073050;28;20814;-78
2022/07/19 10:44:57;;;;;;;8.27;1.98;;;32.50;40.80;;;;;;5069597;28;20204;-78
2022/07/19 10:47:32;;;;;;;3.72;1.20;;;32.40;40.90;;;;;;5075040;28;20677;-79
2022/07/19 10:50:05;;;;;;;3.33;1.38;;;32.70;41.20;;;;;;5080927;28;21594;-79
2022/07/19 10:52:32;;;;;;;3.75;1.98;;;32.70;40.00;;;;;;5068154;28;20238;-78
2022/07/19 10:55:25;;;;;;;5.40;1.95;;;32.60;41.00;;;;;;5064694;28;20304;-78
2022/07/19 10:58:10;;;;;;;3.50;1.88;;;32.70;39.60;;;;;;5071302;28;20664;-78
2022/07/19 11:00:47;;;;;;;4.38;1.38;;;32.90;41.10;;;;;;5072290;28;20250;-79
2022/07/19 11:03:22;;;;;;;7.95;1.75;;;32.90;40.00;;;;;;5070005;28;20197;-78
2022/07/19 11:05:48;;;;;;;7.07;1.73;;;32.40;40.70;;;;;;5068536;28;20271;-79
2022/07/19 11:08:14;;;;;;;11.55;1.63;;;32.20;41.80;;;;;;5064433;28;20636;-79
2022/07/19 11:10:39;;;;;;;3.22;1.40;;;32.50;40.90;;;;;;5071802;28;20188;-78
2022/07/19 11:13:05;;;;;;;5.60;1.90;;;32.50;40.40;;;;;;5064712;28;20188;-78
2022/07/19 11:15:31;;;;;;;4.45;1.75;;;32.60;41.00;;;;;;5072395;28;20219;-78
2022/07/19 11:18:05;;;;;;;4.93;1.65;;;32.80;39.90;;;;;;5066753;28;20177;-78
2022/07/19 11:20:33;;;;;;;3.67;1.80;;;32.60;41.10;;;;;;5065184;28;20204;-76
2022/07/19 11:23:00;;;;;;;3.22;1.33;;;32.70;40.10;;;;;;5058771;28;20669;-78
2022/07/19 11:25:39;;;;;;;2.22;1.20;;;32.60;40.30;;;;;;5074966;28;20199;-78
2022/07/19 11:28:04;;;;;;;3.08;1.92;;;32.60;40.40;;;;;;5067818;28;20182;-77
2022/07/19 11:30:33;;;;;;;7.32;2.08;;;32.70;39.90;;;;;;5069029;28;20188;-78
2022/07/19 11:33:02;;;;;;;3.35;1.30;;;32.70;39.60;;;;;;5070504;28;20191;-78
2022/07/19 11:35:29;;;;;;;3.58;1.67;;;32.60;41.00;;;;;;5068427;28;20197;-78
2022/07/19 11:37:56;;;;;;;2.78;1.40;;;32.90;40.00;;;;;;5055066;28;20314;-78
2022/07/19 11:40:23;;;;;;;3.13;1.73;;;33.00;40.10;;;;;;5058003;28;20575;-78
2022/07/19 11:42:50;;;;;;;4.22;2.22;;;32.80;39.50;;;;;;5063689;28;20597;-78
2022/07/19 11:45:24;;;;;;;4.07;1.80;;;33.00;39.90;;;;;;5068119;28;20561;-77
2022/07/19 11:47:56;;;;;;;4.07;2.10;;;33.00;39.80;;;;;;5061012;28;20184;-77
2022/07/19 11:50:24;;;;;;;4.90;2.20;;;33.00;40.40;;;;;;5068355;28;20208;-77
2022/07/19 11:52:57;;;;;;;6.38;2.60;;;32.90;40.20;;;;;;5075544;28;20950;-78
2022/07/19 11:55:42;;;;;;;2.70;1.77;;;33.00;41.20;;;;;;5067751;28;20205;-77
2022/07/19 11:58:10;;;;;;;4.10;2.42;;;33.20;39.90;;;;;;5065057;28;20665;-77
2022/07/19 12:00:36;;;;;;;5.30;2.33;;;33.40;41.50;;;;;;5058266;28;20665;-78
2022/07/19 12:03:06;;;;;;;6.88;2.08;;;33.30;39.50;;;;;;5066306;28;20656;-79
2022/07/19 12:05:39;;;;;;;2.58;1.40;;;33.40;40.10;;;;;;5066715;28;20291;-77
2022/07/19 12:08:08;;;;;;;15.65;2.03;;;33.50;40.60;;;;;;5067461;28;20738;-77
2022/07/19 12:10:50;;;;;;;4.53;1.80;;;33.60;40.20;;;;;;5062097;28;20188;-79
2022/07/19 12:13:32;;;;;;;3.03;1.73;;;33.70;39.10;;;;;;5068440;28;20272;-76
2022/07/19 12:16:00;;;;;;;4.05;1.92;;;33.20;39.50;;;;;;5070565;28;20740;-79
2022/07/19 12:18:51;;;;;;;8.15;2.45;;;32.80;39.50;;;;;;5069091;28;20259;-77
2022/07/19 12:21:31;;;;;;;3.25;1.77;;;32.90;39.80;;;;;;5059198;28;20222;-79
2022/07/19 12:24:11;;;;;;;5.75;2.28;;;33.10;39.60;;;;;;5061997;28;20196;-77
2022/07/19 12:26:38;;;;;;;5.97;2.45;;;33.10;41.40;;;;;;5066694;28;20185;-77
2022/07/19 12:29:18;;;;;;;6.57;1.92;;;33.50;40.00;;;;;;5071054;28;20188;-78
2022/07/19 12:31:45;;;;;;;5.50;1.98;;;33.90;40.00;;;;;;5068960;28;20267;-78
2022/07/19 12:34:12;;;;;;;9.00;2.15;;;34.10;39.40;;;;;;5069300;28;20552;-78
2022/07/19 12:36:37;;;;;;;8.23;2.38;;;34.00;39.90;;;;;;5067966;28;20177;-77
2022/07/19 12:39:04;;;;;;;5.88;2.33;;;34.10;40.30;;;;;;5065088;28;20188;-78
2022/07/19 12:41:30;;;;;;;3.78;2.05;;;34.20;39.00;;;;;;5069383;28;20204;-78
2022/07/19 12:43:56;;;;;;;9.82;2.30;;;34.30;39.80;;;;;;5068408;28;20201;-78
2022/07/19 12:46:21;;;;;;;3.60;1.63;;;34.40;38.80;;;;;;5067837;28;20177;-78
2022/07/19 12:48:47;;;;;;;4.15;2.08;;;34.40;38.80;;;;;;5065238;28;20181;-77
2022/07/19 12:51:13;;;;;;;4.55;1.65;;;34.00;39.40;;;;;;5067149;28;20227;-77